createdAt,value
2022-11-29T00:00:33.503Z,1.71
2022-11-29T00:03:37.467Z,1.59
2022-11-29T00:06:40.071Z,1.57
2022-11-29T00:09:42.553Z,1.60
2022-11-29T00:12:46.728Z,1.65
2022-11-29T00:15:49.157Z,1.65
2022-11-29T00:18:52.512Z,1.62
2022-11-29T00:21:55.047Z,1.60
2022-11-29T00:24:57.211Z,1.70
2022-11-29T00:27:59.752Z,1.57
2022-11-29T00:31:12.232Z,1.51
2022-11-29T00:34:14.942Z,1.46
2022-11-29T00:37:17.549Z,1.36
2022-11-29T00:40:20.183Z,1.41
2022-11-29T00:43:22.323Z,1.48
2022-11-29T00:46:25.354Z,1.42
2022-11-29T00:49:27.641Z,1.27
2022-11-29T00:52:30.143Z,1.28
2022-11-29T00:55:32.420Z,1.33
2022-11-29T00:58:38.162Z,1.34
2022-11-29T01:01:40.508Z,1.44
2022-11-29T01:04:43.357Z,1.41
2022-11-29T01:07:45.830Z,1.42
2022-11-29T01:10:48.402Z,1.44
2022-11-29T01:13:51.343Z,1.43
2022-11-29T01:16:54.226Z,1.38
2022-11-29T01:19:56.449Z,1.32
2022-11-29T01:22:59.063Z,1.33
2022-11-29T01:26:02.880Z,1.33
2022-11-29T01:29:05.429Z,1.42
2022-11-29T01:32:07.656Z,1.35
2022-11-29T01:35:10.306Z,1.32
2022-11-29T01:38:12.660Z,1.34
2022-11-29T01:41:19.439Z,1.39
2022-11-29T01:44:21.629Z,1.30
2022-11-29T01:47:24.087Z,1.36
2022-11-29T01:50:26.348Z,1.39
2022-11-29T01:53:29.241Z,1.25
2022-11-29T01:56:33.536Z,1.18
2022-11-29T01:59:37.305Z,1.21
2022-11-29T02:02:45.828Z,1.26
2022-11-29T02:05:50.376Z,1.30
2022-11-29T02:08:52.686Z,1.37
2022-11-29T02:12:13.985Z,1.35
2022-11-29T02:15:22.639Z,1.44
2022-11-29T02:18:35.585Z,1.42
2022-11-29T02:21:40.930Z,1.28
2022-11-29T02:25:02.269Z,1.30
2022-11-29T02:28:04.562Z,1.26
2022-11-29T02:31:25.778Z,1.31
2022-11-29T02:34:47.100Z,1.24
2022-11-29T02:37:55.822Z,1.26
2022-11-29T02:41:17.001Z,1.30
2022-11-29T02:44:31.607Z,1.30
2022-11-29T02:47:33.877Z,1.09
2022-11-29T02:50:46.580Z,1.10
2022-11-29T02:54:07.564Z,1.01
2022-11-29T02:57:16.280Z,1.15
2022-11-29T03:00:20.301Z,1.21
2022-11-29T03:03:46.412Z,1.21
2022-11-29T03:06:54.298Z,1.28
2022-11-29T03:10:02.618Z,1.15
2022-11-29T03:13:09.158Z,1.20
2022-11-29T03:16:23.511Z,1.14
2022-11-29T03:19:40.994Z,1.15
2022-11-29T03:22:46.321Z,1.10
2022-11-29T03:25:55.136Z,1.12
2022-11-29T03:29:09.531Z,1.20
2022-11-29T03:32:16.149Z,1.15
2022-11-29T03:35:48.076Z,1.23
2022-11-29T03:38:51.205Z,1.33
2022-11-29T03:42:00.389Z,1.23
2022-11-29T03:45:08.918Z,1.21
2022-11-29T03:48:21.855Z,1.24
2022-11-29T03:51:47.971Z,1.28
2022-11-29T03:55:13.760Z,1.22
2022-11-29T03:58:19.307Z,1.25
2022-11-29T04:01:21.904Z,1.18
2022-11-29T04:04:36.903Z,1.16
2022-11-29T04:07:49.890Z,1.18
2022-11-29T04:10:52.593Z,1.16
2022-11-29T04:14:14.690Z,1.12
2022-11-29T04:17:35.846Z,1.09
2022-11-29T04:20:53.466Z,1.09
2022-11-29T04:24:00.090Z,1.05
2022-11-29T04:27:20.791Z,0.99
2022-11-29T04:30:24.623Z,0.97
2022-11-29T04:33:30.077Z,0.93
2022-11-29T04:36:52.859Z,0.92
2022-11-29T04:40:11.775Z,0.93
2022-11-29T04:43:31.149Z,0.91
2022-11-29T04:46:48.701Z,0.92
2022-11-29T04:49:54.118Z,0.83
2022-11-29T04:53:25.309Z,0.85
2022-11-29T04:56:45.605Z,0.91
2022-11-29T05:00:17.504Z,0.83
2022-11-29T05:03:25.435Z,0.77
2022-11-29T05:06:32.930Z,0.90
2022-11-29T05:09:35.432Z,0.80
2022-11-29T05:12:59.657Z,0.88
2022-11-29T05:16:14.160Z,0.87
2022-11-29T05:19:33.552Z,0.88
2022-11-29T05:22:40.632Z,0.82
2022-11-29T05:25:59.628Z,0.84
2022-11-29T05:29:10.362Z,0.80
2022-11-29T05:32:33.609Z,0.79
2022-11-29T05:35:36.066Z,0.82
2022-11-29T05:38:57.179Z,0.74
2022-11-29T05:42:19.938Z,0.68
2022-11-29T05:45:25.261Z,0.75
2022-11-29T05:48:37.734Z,0.76
2022-11-29T05:52:03.494Z,0.67
2022-11-29T05:55:15.382Z,0.51
2022-11-29T05:58:47.238Z,0.61
2022-11-29T06:02:04.210Z,0.61
2022-11-29T06:05:16.940Z,0.81
2022-11-29T06:08:57.935Z,0.80
2022-11-29T06:12:06.791Z,0.79
2022-11-29T06:15:13.726Z,0.80
2022-11-29T06:18:23.685Z,0.69
2022-11-29T06:21:45.414Z,0.84
2022-11-29T06:24:56.533Z,0.87
2022-11-29T06:28:17.737Z,0.84
2022-11-29T06:31:38.157Z,0.82
2022-11-29T06:34:52.907Z,0.91
2022-11-29T06:37:57.977Z,0.82
2022-11-29T06:41:02.429Z,0.86
2022-11-29T06:44:05.388Z,0.87
2022-11-29T06:47:10.453Z,0.85
2022-11-29T06:50:34.425Z,0.80
2022-11-29T06:53:45.705Z,0.80
2022-11-29T06:56:51.183Z,1.02
2022-11-29T07:00:03.883Z,1.05
2022-11-29T07:03:16.975Z,1.00
2022-11-29T07:06:27.343Z,1.14
2022-11-29T07:09:34.714Z,1.13
2022-11-29T07:12:37.002Z,1.20
2022-11-29T07:16:06.055Z,1.26
2022-11-29T07:19:08.267Z,1.19
2022-11-29T07:22:22.173Z,1.08
2022-11-29T07:25:36.627Z,1.16
2022-11-29T07:28:59.003Z,1.32
2022-11-29T07:32:04.122Z,1.34
2022-11-29T07:35:06.628Z,1.35
2022-11-29T07:38:15.759Z,1.51
2022-11-29T07:41:24.825Z,1.43
2022-11-29T07:44:29.969Z,1.45
2022-11-29T07:47:35.718Z,1.48
2022-11-29T07:50:39.222Z,1.51
2022-11-29T07:53:43.151Z,1.43
2022-11-29T07:56:45.751Z,1.26
2022-11-29T07:59:48.335Z,1.24
2022-11-29T08:02:50.827Z,1.21
2022-11-29T08:05:53.330Z,1.30
2022-11-29T08:08:57.511Z,1.35
2022-11-29T08:11:59.993Z,1.30
2022-11-29T08:15:02.372Z,1.39
2022-11-29T08:18:05.818Z,1.49
2022-11-29T08:21:08.182Z,1.44
2022-11-29T08:24:10.642Z,1.51
2022-11-29T08:27:12.917Z,1.55
2022-11-29T08:30:18.662Z,1.68
2022-11-29T08:33:20.925Z,1.79
2022-11-29T08:36:23.389Z,1.83
2022-11-29T08:39:25.622Z,1.89
2022-11-29T08:42:28.088Z,1.75
2022-11-29T08:45:30.339Z,1.76
2022-11-29T08:48:32.870Z,1.61
2022-11-29T08:51:35.139Z,1.78
2022-11-29T08:54:37.643Z,1.60
2022-11-29T08:57:40.909Z,1.80
2022-11-29T09:00:46.847Z,1.75
2022-11-29T09:04:07.087Z,1.75
2022-11-29T09:07:09.642Z,1.65
2022-11-29T09:10:12.242Z,1.87
2022-11-29T09:13:14.755Z,1.84
2022-11-29T09:16:18.260Z,1.88
2022-11-29T09:19:20.845Z,2.09
2022-11-29T09:22:23.063Z,2.15
2022-11-29T09:25:26.183Z,2.02
2022-11-29T09:28:28.444Z,2.00
2022-11-29T09:31:32.117Z,1.93
2022-11-29T09:34:34.465Z,1.79
2022-11-29T09:37:37.041Z,1.89
2022-11-29T09:40:46.853Z,1.99
2022-11-29T09:44:01.145Z,1.99
2022-11-29T09:47:06.106Z,1.95
2022-11-29T09:50:11.487Z,2.11
2022-11-29T09:53:32.880Z,2.21
2022-11-29T09:56:35.424Z,2.28
2022-11-29T09:59:39.655Z,2.28
2022-11-29T10:02:47.736Z,2.33
2022-11-29T10:05:53.481Z,2.22
2022-11-29T10:08:58.565Z,2.45
2022-11-29T10:12:13.394Z,2.57
2022-11-29T10:15:24.109Z,2.63
2022-11-29T10:18:38.485Z,2.64
2022-11-29T10:21:43.126Z,2.76
2022-11-29T10:24:49.213Z,2.70
2022-11-29T10:27:51.879Z,2.73
2022-11-29T10:30:55.975Z,2.98
2022-11-29T10:34:00.563Z,2.80
2022-11-29T10:37:03.150Z,3.02
2022-11-29T10:40:10.021Z,2.98
2022-11-29T10:43:12.891Z,2.95
2022-11-29T10:46:25.381Z,2.99
2022-11-29T10:49:28.445Z,2.77
2022-11-29T10:52:30.635Z,3.11
2022-11-29T10:55:37.250Z,3.20
2022-11-29T10:58:54.623Z,3.04
2022-11-29T11:01:57.539Z,2.98
2022-11-29T11:05:00.554Z,3.00
2022-11-29T11:08:05.447Z,2.82
2022-11-29T11:11:08.264Z,2.69
2022-11-29T11:14:33.007Z,2.64
2022-11-29T11:17:37.638Z,2.73
2022-11-29T11:20:41.718Z,2.84
2022-11-29T11:23:53.414Z,2.89
2022-11-29T11:26:56.473Z,2.96
2022-11-29T11:29:59.194Z,2.91
2022-11-29T11:33:16.806Z,3.08
2022-11-29T11:36:27.393Z,3.09
2022-11-29T11:39:32.245Z,3.16
2022-11-29T11:42:38.018Z,3.06
2022-11-29T11:45:40.461Z,2.86
2022-11-29T11:48:42.986Z,3.06
2022-11-29T11:51:45.565Z,3.02
2022-11-29T11:54:51.354Z,2.98
2022-11-29T11:58:09.325Z,3.11
2022-11-29T12:01:12.589Z,3.07
2022-11-29T12:04:17.100Z,2.99
2022-11-29T12:07:51.889Z,2.88
2022-11-29T12:10:52.425Z,2.80
2022-11-29T12:13:56.885Z,2.75
2022-11-29T12:17:15.440Z,2.74
2022-11-29T12:20:21.017Z,2.70
2022-11-29T12:23:29.110Z,2.66
2022-11-29T12:30:01.846Z,2.67
2022-11-29T12:33:23.741Z,2.69
2022-11-29T12:36:55.567Z,2.65
2022-11-29T12:40:05.147Z,2.71
2022-11-29T12:43:13.389Z,2.80
2022-11-29T12:46:22.863Z,2.90
2022-11-29T12:49:25.629Z,3.01
2022-11-29T12:52:48.292Z,3.01
2022-11-29T12:56:00.220Z,3.00
2022-11-29T12:59:09.502Z,3.05
2022-11-29T13:02:11.945Z,3.09
2022-11-29T13:05:19.840Z,3.13
2022-11-29T13:08:22.457Z,3.14
2022-11-29T13:11:29.641Z,3.27
2022-11-29T13:14:43.398Z,3.38
2022-11-29T13:17:55.391Z,3.26
2022-11-29T13:20:57.922Z,3.30
2022-11-29T13:24:10.100Z,3.40
2022-11-29T13:27:15.995Z,3.41
2022-11-29T13:30:20.337Z,3.32
2022-11-29T13:33:34.460Z,3.30
2022-11-29T13:36:42.807Z,3.37
2022-11-29T13:40:01.864Z,3.28
2022-11-29T13:43:10.328Z,3.26
2022-11-29T13:46:31.637Z,3.26
2022-11-29T13:49:52.980Z,3.23
2022-11-29T13:53:03.603Z,3.17
2022-11-29T13:56:05.959Z,3.15
2022-11-29T13:59:15.011Z,3.04
2022-11-29T14:02:28.706Z,2.98
2022-11-29T14:05:38.371Z,3.03
2022-11-29T14:09:17.374Z,3.17
2022-11-29T14:12:38.346Z,3.06
2022-11-29T14:15:41.177Z,2.99
2022-11-29T14:18:48.884Z,2.95
2022-11-29T14:22:03.108Z,2.99
2022-11-29T14:25:49.848Z,2.87
2022-11-29T14:28:44.828Z,2.82
2022-11-29T14:31:48.660Z,2.86
2022-11-29T14:34:55.247Z,2.87
2022-11-29T14:38:03.919Z,2.94
2022-11-29T14:41:21.762Z,2.82
2022-11-29T14:44:29.974Z,2.91
2022-11-29T14:47:47.954Z,2.92
2022-11-29T14:51:06.954Z,2.98
2022-11-29T14:54:09.223Z,2.91
2022-11-29T14:57:30.234Z,2.87
2022-11-29T15:00:47.843Z,2.79
2022-11-29T15:03:51.101Z,2.82
2022-11-29T15:06:55.847Z,2.88
2022-11-29T15:10:04.277Z,2.86
2022-11-29T15:13:09.274Z,2.92
2022-11-29T15:16:36.465Z,2.85
2022-11-29T15:19:54.077Z,2.90
2022-11-29T15:22:59.569Z,2.88
2022-11-29T15:26:01.875Z,2.92
2022-11-29T15:29:19.477Z,3.03
2022-11-29T15:32:23.627Z,3.01
2022-11-29T15:35:26.579Z,2.96
2022-11-29T15:38:28.783Z,2.86
2022-11-29T15:41:34.736Z,2.80
2022-11-29T15:44:37.071Z,2.84
2022-11-29T15:47:39.542Z,2.85
2022-11-29T15:50:45.826Z,2.81
2022-11-29T15:54:00.362Z,2.71
2022-11-29T15:57:16.473Z,2.67
2022-11-29T16:00:21.604Z,2.79
2022-11-29T16:03:25.947Z,2.87
2022-11-29T16:06:41.622Z,2.92
2022-11-29T16:09:48.749Z,2.91
2022-11-29T16:12:51.013Z,2.83
2022-11-29T16:16:22.967Z,2.80
2022-11-29T16:19:28.142Z,2.75
2022-11-29T16:22:32.178Z,2.62
2022-11-29T16:25:37.590Z,2.65
2022-11-29T16:28:45.309Z,2.72
2022-11-29T16:31:47.553Z,2.70
2022-11-29T16:34:50.305Z,2.67
2022-11-29T16:37:52.677Z,2.72
2022-11-29T16:41:21.423Z,2.72
2022-11-29T16:44:36.042Z,2.72
2022-11-29T16:47:47.704Z,2.59
2022-11-29T16:51:20.881Z,2.73
2022-11-29T16:54:24.793Z,2.59
2022-11-29T16:57:28.350Z,2.60
2022-11-29T17:00:32.355Z,2.58
2022-11-29T17:03:34.600Z,2.64
2022-11-29T17:06:37.148Z,2.57
2022-11-29T17:09:39.656Z,2.63
2022-11-29T17:12:47.852Z,2.65
2022-11-29T17:15:50.605Z,2.62
2022-11-29T17:18:53.773Z,2.55
2022-11-29T17:21:56.325Z,2.68
2022-11-29T17:24:58.752Z,2.70
2022-11-29T17:28:01.118Z,2.69
2022-11-29T17:31:10.738Z,2.75
2022-11-29T17:34:13.058Z,2.68
2022-11-29T17:37:15.594Z,2.78
2022-11-29T17:40:17.972Z,2.84
2022-11-29T17:43:20.447Z,2.79
2022-11-29T17:46:26.842Z,2.89
2022-11-29T17:49:29.413Z,2.88
2022-11-29T17:52:31.722Z,2.90
2022-11-29T17:55:34.249Z,2.89
2022-11-29T17:58:37.180Z,2.94
2022-11-29T18:01:40.060Z,2.96
2022-11-29T18:04:43.950Z,2.92
2022-11-29T18:07:58.294Z,2.88
2022-11-29T18:11:08.026Z,2.94
2022-11-29T18:14:13.564Z,2.88
2022-11-29T18:17:16.726Z,2.95
2022-11-29T18:20:18.907Z,3.01
2022-11-29T18:23:21.503Z,2.93
2022-11-29T18:26:24.683Z,2.94
2022-11-29T18:29:28.681Z,3.00
2022-11-29T18:32:33.217Z,3.02
2022-11-29T18:35:35.882Z,3.07
2022-11-29T18:38:39.739Z,2.95
2022-11-29T18:41:43.837Z,2.98
2022-11-29T18:44:46.451Z,2.92
2022-11-29T18:47:49.159Z,2.99
2022-11-29T18:50:51.492Z,3.00
2022-11-29T18:53:54.068Z,2.96
2022-11-29T18:56:56.419Z,3.01
2022-11-29T18:59:58.982Z,2.94
2022-11-29T19:03:01.300Z,2.95
2022-11-29T19:06:09.714Z,2.93
2022-11-29T19:09:13.661Z,2.91
2022-11-29T19:12:16.130Z,2.86
2022-11-29T19:15:19.086Z,2.80
2022-11-29T19:18:22.210Z,2.78
2022-11-29T19:21:25.215Z,2.82
2022-11-29T19:24:28.405Z,2.82
2022-11-29T19:27:30.787Z,2.88
2022-11-29T19:30:34.233Z,2.97
2022-11-29T19:33:37.976Z,2.98
2022-11-29T19:36:43.335Z,2.91
2022-11-29T19:39:46.408Z,2.97
2022-11-29T19:42:49.526Z,2.97
2022-11-29T19:45:53.273Z,3.00
2022-11-29T19:48:56.928Z,2.82
2022-11-29T19:51:59.299Z,2.84
2022-11-29T19:55:01.854Z,2.80
2022-11-29T19:58:04.136Z,2.76
2022-11-29T20:01:07.824Z,2.76
2022-11-29T20:04:11.546Z,2.76
2022-11-29T20:07:13.815Z,2.78
2022-11-29T20:10:16.562Z,2.83
2022-11-29T20:13:18.798Z,2.75
2022-11-29T20:16:22.070Z,2.65
2022-11-29T20:19:24.366Z,2.60
2022-11-29T20:22:26.843Z,2.64
2022-11-29T20:25:29.554Z,2.64
2022-11-29T20:28:32.138Z,2.59
2022-11-29T20:31:35.532Z,2.59
2022-11-29T20:34:40.214Z,2.54
2022-11-29T20:37:49.401Z,2.65
2022-11-29T20:41:02.643Z,2.62
2022-11-29T20:44:05.465Z,2.56
2022-11-29T20:47:16.194Z,2.70
2022-11-29T20:50:23.236Z,2.67
2022-11-29T20:53:26.086Z,2.69
2022-11-29T20:56:28.338Z,2.68
2022-11-29T20:59:30.804Z,2.57
2022-11-29T21:02:33.088Z,2.70
2022-11-29T21:05:37.540Z,2.80
2022-11-29T21:08:39.865Z,2.64
2022-11-29T21:11:42.390Z,2.63
2022-11-29T21:14:45.135Z,2.74
2022-11-29T21:17:47.889Z,2.70
2022-11-29T21:21:03.130Z,2.74
2022-11-29T21:24:06.739Z,2.72
2022-11-29T21:27:13.409Z,2.69
2022-11-29T21:30:20.426Z,2.79
2022-11-29T21:33:22.801Z,2.75
2022-11-29T21:36:25.375Z,2.79
2022-11-29T21:39:32.124Z,2.84
2022-11-29T21:42:34.701Z,2.76
2022-11-29T21:45:36.901Z,2.66
2022-11-29T21:48:42.224Z,2.73
2022-11-29T21:51:44.400Z,2.81
2022-11-29T21:54:47.043Z,2.84
2022-11-29T21:57:49.532Z,2.84
2022-11-29T22:00:52.850Z,2.78
2022-11-29T22:03:55.802Z,2.78
2022-11-29T22:06:58.018Z,2.83
2022-11-29T22:10:08.554Z,2.87
2022-11-29T22:13:15.306Z,2.85
2022-11-29T22:16:18.331Z,2.72
2022-11-29T22:19:26.742Z,2.74
2022-11-29T22:22:30.173Z,2.70
2022-11-29T22:25:32.390Z,2.68
2022-11-29T22:28:35.169Z,2.83
2022-11-29T22:31:37.557Z,2.70
2022-11-29T22:34:40.124Z,2.70
2022-11-29T22:37:42.337Z,2.85
2022-11-29T22:40:44.945Z,2.70
2022-11-29T22:43:47.294Z,2.87
2022-11-29T22:46:49.900Z,2.83
2022-11-29T22:49:52.197Z,2.81
2022-11-29T22:52:54.648Z,2.90
2022-11-29T22:55:58.055Z,2.90
2022-11-29T22:59:00.718Z,2.91
2022-11-29T23:02:03.172Z,2.97
2022-11-29T23:05:05.874Z,2.94
2022-11-29T23:08:08.130Z,2.90
2022-11-29T23:11:13.149Z,2.92
2022-11-29T23:14:15.434Z,2.95
2022-11-29T23:17:17.944Z,2.94
2022-11-29T23:20:20.310Z,3.02
2022-11-29T23:23:22.842Z,3.01
2022-11-29T23:26:37.449Z,3.03
2022-11-29T23:29:40.030Z,3.07
2022-11-29T23:32:42.328Z,3.15
2022-11-29T23:35:44.935Z,3.13
2022-11-29T23:38:47.952Z,3.07
2022-11-29T23:41:50.422Z,3.13
2022-11-29T23:44:52.709Z,3.07
2022-11-29T23:47:56.098Z,3.08
2022-11-29T23:50:58.318Z,3.06
2022-11-29T23:54:00.849Z,3.05
2022-11-29T23:57:03.015Z,3.09
